Time;durP1;ratioP1;P1;durP2;ratioP2;P2;SDS_P1;SDS_P2;PMS_P1;PMS_P2;Temp;Humidity;BMP_temperature;BMP_pressure;BME280_temperature;BME280_humidity;BME280_pressure;Samples;Min_cycle;Max_cycle;Signal;HPM_P1;HPM_P2
2022/03/05 00:00:54;;;;;;;83.63;17.03;;;2.50;49.90;;;;;;4999827;28;20182;-86
2022/03/05 00:03:21;;;;;;;83.33;16.50;;;2.50;50.90;;;;;;4999687;28;20174;-86
2022/03/05 00:05:46;;;;;;;84.25;20.25;;;2.50;52.30;;;;;;4999467;28;20430;-86
2022/03/05 00:08:12;;;;;;;84.87;21.00;;;2.40;53.10;;;;;;4999188;28;20182;-85
2022/03/05 00:10:39;;;;;;;83.88;18.02;;;2.30;56.20;;;;;;4997787;28;20170;-86
2022/03/05 00:13:05;;;;;;;86.85;17.08;;;2.30;57.10;;;;;;4999096;28;20175;-85
2022/03/05 00:15:32;;;;;;;86.32;17.30;;;2.30;58.40;;;;;;4998841;28;20709;-86
2022/03/05 00:18:01;;;;;;;80.32;16.05;;;2.30;59.20;;;;;;4998007;28;20175;-85
2022/03/05 00:20:26;;;;;;;82.78;17.13;;;2.30;61.00;;;;;;4999309;28;20553;-85
2022/03/05 00:22:52;;;;;;;83.30;15.80;;;2.30;61.50;;;;;;4999144;28;20167;-85
2022/03/05 00:25:23;;;;;;;84.03;17.20;;;2.20;65.50;;;;;;5000144;28;20460;-85
2022/03/05 00:27:49;;;;;;;95.00;16.55;;;2.20;67.30;;;;;;4998659;28;20166;-85
2022/03/05 00:30:15;;;;;;;86.33;17.63;;;2.10;70.10;;;;;;4999509;28;20163;-85
2022/03/05 00:32:41;;;;;;;89.17;17.87;;;2.10;72.00;;;;;;4998558;28;20413;-85
2022/03/05 00:35:07;;;;;;;92.03;17.90;;;2.10;70.70;;;;;;4999647;28;20421;-86
2022/03/05 00:37:33;;;;;;;100.28;18.35;;;2.10;71.50;;;;;;5003237;28;20413;-85
2022/03/05 00:39:59;;;;;;;92.90;27.08;;;2.00;75.10;;;;;;5003477;28;20542;-85
2022/03/05 00:42:25;;;;;;;93.00;25.73;;;2.00;77.70;;;;;;5003226;28;20194;-85
2022/03/05 00:44:51;;;;;;;96.50;29.30;;;2.10;76.90;;;;;;5002293;28;20171;-86
2022/03/05 00:47:17;;;;;;;94.57;26.98;;;2.00;77.90;;;;;;5002463;28;20453;-85
2022/03/05 00:49:43;;;;;;;96.50;24.50;;;1.90;79.80;;;;;;5003375;28;20175;-86
2022/03/05 00:52:09;;;;;;;91.93;29.45;;;2.00;79.80;;;;;;5001477;28;20258;-85
2022/03/05 00:54:35;;;;;;;93.97;30.02;;;1.90;80.80;;;;;;5002509;28;20205;-85
2022/03/05 00:57:02;;;;;;;108.47;34.75;;;1.90;82.20;;;;;;5003007;28;20189;-85
2022/03/05 00:59:28;;;;;;;87.60;24.63;;;1.90;81.70;;;;;;5003142;28;20636;-86
2022/03/05 01:01:54;;;;;;;92.13;30.17;;;1.90;81.50;;;;;;5002780;28;20193;-85
2022/03/05 01:04:20;;;;;;;98.10;32.00;;;1.80;85.10;;;;;;5001669;28;20634;-85
2022/03/05 01:06:46;;;;;;;90.50;31.80;;;1.80;87.40;;;;;;5003570;28;20186;-85
2022/03/05 01:09:11;;;;;;;90.93;33.33;;;1.70;88.80;;;;;;5002626;28;20179;-85
2022/03/05 01:11:37;;;;;;;90.87;26.10;;;1.70;90.40;;;;;;5101088;23;20590;-85
2022/03/05 01:14:03;;;;;;;105.13;33.00;;;1.70;90.20;;;;;;5070406;23;20645;-86
2022/03/05 01:16:30;;;;;;;99.15;35.78;;;1.70;90.60;;;;;;5002128;28;20528;-85
2022/03/05 01:18:55;;;;;;;93.40;27.75;;;1.70;90.50;;;;;;5002333;28;20166;-85
2022/03/05 01:21:21;;;;;;;94.43;26.70;;;1.70;90.80;;;;;;5002999;28;20201;-85
2022/03/05 01:23:47;;;;;;;95.73;29.97;;;1.70;90.80;;;;;;5002368;28;20170;-85
2022/03/05 01:26:12;;;;;;;92.10;30.00;;;1.70;90.80;;;;;;5002598;28;20189;-85
2022/03/05 01:28:38;;;;;;;94.03;27.67;;;1.60;90.90;;;;;;5002169;28;20434;-85
2022/03/05 01:31:04;;;;;;;96.67;27.60;;;1.60;91.50;;;;;;5002496;28;20631;-85
2022/03/05 01:33:29;;;;;;;98.13;28.27;;;1.60;92.10;;;;;;5002547;28;20190;-86
2022/03/05 01:35:55;;;;;;;93.70;29.87;;;1.60;93.30;;;;;;5001572;28;20284;-85
2022/03/05 01:38:20;;;;;;;95.63;30.93;;;1.50;93.80;;;;;;5002650;28;20189;-86
2022/03/05 01:40:46;;;;;;;99.50;35.57;;;1.50;94.60;;;;;;5001123;28;20562;-85
2022/03/05 01:43:12;;;;;;;98.60;32.53;;;1.40;95.90;;;;;;5001943;28;20182;-86
2022/03/05 01:45:39;;;;;;;99.13;34.67;;;1.40;96.10;;;;;;5001932;28;20421;-85
2022/03/05 01:48:05;;;;;;;92.63;33.53;;;1.40;96.50;;;;;;5000045;28;20442;-86
2022/03/05 01:50:32;;;;;;;95.03;28.73;;;1.40;96.40;;;;;;4999707;28;20193;-86
2022/03/05 01:52:58;;;;;;;100.70;31.35;;;1.40;96.90;;;;;;5001114;28;20200;-85
2022/03/05 01:55:24;;;;;;;98.83;29.93;;;1.40;97.00;;;;;;5002429;28;20171;-85
2022/03/05 01:57:50;;;;;;;105.35;31.02;;;1.40;97.60;;;;;;5001622;28;20417;-85
2022/03/05 02:00:17;;;;;;;97.72;28.63;;;1.40;96.40;;;;;;5002337;28;20173;-85
2022/03/05 02:02:43;;;;;;;99.85;34.25;;;1.30;97.80;;;;;;5002066;28;20697;-85
2022/03/05 02:05:11;;;;;;;100.78;36.58;;;1.30;97.90;;;;;;5002496;28;20217;-85
2022/03/05 02:07:37;;;;;;;102.93;37.28;;;1.20;99.20;;;;;;5000760;28;20190;-85
2022/03/05 02:10:04;;;;;;;100.55;34.70;;;1.20;99.90;;;;;;5002107;28;20647;-85
2022/03/05 02:12:31;;;;;;;91.10;32.78;;;1.20;99.90;;;;;;5000852;28;20656;-85
2022/03/05 02:15:01;;;;;;;98.55;41.85;;;1.20;99.90;;;;;;5001550;28;20263;-85
2022/03/05 02:17:28;;;;;;;108.93;60.20;;;1.10;99.90;;;;;;5002336;28;20198;-85
2022/03/05 02:19:54;;;;;;;120.53;73.00;;;1.00;99.90;;;;;;5001538;28;20198;-86
2022/03/05 02:22:20;;;;;;;131.10;92.13;;;1.00;99.90;;;;;;5001658;28;20749;-85
2022/03/05 02:24:50;;;;;;;129.70;113.80;;;0.90;99.90;;;;;;5001894;28;20693;-85
2022/03/05 02:27:16;;;;;;;121.43;83.60;;;0.80;99.90;;;;;;5001795;28;20590;-85
2022/03/05 02:29:41;;;;;;;128.33;89.50;;;0.90;99.90;;;;;;5001711;28;20231;-85
2022/03/05 02:32:07;;;;;;;119.07;90.40;;;0.90;99.90;;;;;;5001608;28;20197;-85
2022/03/05 02:34:33;;;;;;;110.13;76.03;;;0.80;99.90;;;;;;5001596;28;20249;-85
2022/03/05 02:36:59;;;;;;;131.77;96.22;;;0.80;99.90;;;;;;4999851;28;20543;-86
2022/03/05 02:39:25;;;;;;;110.73;82.77;;;0.80;99.90;;;;;;5000150;28;20171;-85
2022/03/05 02:41:55;;;;;;;119.05;78.97;;;0.80;99.90;;;;;;5001219;28;20235;-85
2022/03/05 02:44:21;;;;;;;113.70;73.57;;;0.80;99.90;;;;;;5000917;28;20159;-85
2022/03/05 02:46:48;;;;;;;117.13;73.82;;;0.80;99.90;;;;;;5001077;28;20642;-85
2022/03/05 02:49:14;;;;;;;116.88;90.85;;;0.80;99.90;;;;;;5001216;28;20658;-85
2022/03/05 02:51:40;;;;;;;118.37;78.30;;;0.70;99.90;;;;;;5001115;28;20170;-85
2022/03/05 02:54:05;;;;;;;114.87;80.53;;;0.70;99.90;;;;;;5000322;28;20238;-85
2022/03/05 02:56:31;;;;;;;116.53;72.80;;;0.70;99.90;;;;;;5000457;28;20554;-85
2022/03/05 02:58:57;;;;;;;118.93;81.53;;;0.70;99.90;;;;;;4999682;28;20558;-85
2022/03/05 03:01:23;;;;;;;117.33;71.93;;;0.70;99.90;;;;;;5000913;28;20445;-85
2022/03/05 03:03:49;;;;;;;114.25;81.65;;;0.70;99.90;;;;;;5001098;28;20166;-85
2022/03/05 03:06:15;;;;;;;128.90;86.73;;;0.60;99.90;;;;;;5000679;28;20189;-85
2022/03/05 03:08:41;;;;;;;111.37;73.97;;;0.50;99.90;;;;;;5000798;28;20223;-85
2022/03/05 03:11:06;;;;;;;114.60;80.27;;;0.50;99.90;;;;;;5000413;28;20197;-85
2022/03/05 03:13:32;;;;;;;116.93;74.83;;;0.60;99.90;;;;;;5000498;28;20277;-85
2022/03/05 03:15:58;;;;;;;123.30;95.17;;;0.60;99.90;;;;;;5000952;28;20672;-85
2022/03/05 03:18:23;;;;;;;128.40;79.23;;;0.50;99.90;;;;;;5000568;28;20163;-85
2022/03/05 03:20:49;;;;;;;118.47;68.97;;;0.50;99.90;;;;;;5000259;28;20265;-85
2022/03/05 03:23:15;;;;;;;110.47;63.93;;;0.50;99.90;;;;;;4999465;28;20170;-85
2022/03/05 03:25:41;;;;;;;117.77;77.20;;;0.50;99.90;;;;;;4998846;28;20182;-85
2022/03/05 03:28:07;;;;;;;110.50;70.27;;;0.50;99.90;;;;;;4999922;28;20460;-85
2022/03/05 03:30:34;;;;;;;122.80;72.30;;;0.50;99.90;;;;;;4998311;28;20202;-85
2022/03/05 03:33:00;;;;;;;113.35;82.28;;;0.40;99.90;;;;;;4999480;28;20336;-85
2022/03/05 03:35:26;;;;;;;115.27;72.47;;;0.30;99.90;;;;;;4999415;28;20252;-85
2022/03/05 03:37:51;;;;;;;114.57;89.57;;;0.40;99.90;;;;;;4999781;28;20408;-85
2022/03/05 03:40:18;;;;;;;117.00;57.03;;;0.40;99.90;;;;;;4999491;28;20159;-85
2022/03/05 03:42:47;;;;;;;115.88;64.18;;;0.40;99.90;;;;;;5000712;28;20601;-85
2022/03/05 03:45:13;;;;;;;108.88;64.63;;;0.40;99.90;;;;;;4999887;28;20189;-85
2022/03/05 03:47:40;;;;;;;108.10;53.45;;;0.40;99.90;;;;;;5000972;28;20190;-85
2022/03/05 03:50:07;;;;;;;108.13;55.25;;;0.40;99.90;;;;;;5000607;28;20162;-85
2022/03/05 03:52:32;;;;;;;109.60;58.83;;;0.40;99.90;;;;;;5000495;28;20171;-85
2022/03/05 03:54:58;;;;;;;105.00;55.83;;;0.30;99.90;;;;;;5000240;28;20166;-85
2022/03/05 03:57:24;;;;;;;102.67;55.13;;;0.30;99.90;;;;;;4999659;28;20558;-85
2022/03/05 03:59:51;;;;;;;112.97;61.87;;;0.30;99.90;;;;;;5098634;23;20489;-85
2022/03/05 04:02:22;;;;;;;110.88;67.53;;;0.30;99.90;;;;;;5059035;23;20264;-85
2022/03/05 04:04:48;;;;;;;104.82;46.38;;;0.20;99.90;;;;;;5000274;28;20151;-85
2022/03/05 04:09:58;;;;;;;102.30;48.30;;;0.30;99.90;;;;;;5001227;28;20157;-86
2022/03/05 04:12:24;;;;;;;110.50;57.37;;;0.30;99.90;;;;;;5004241;28;20190;-85
2022/03/05 04:14:50;;;;;;;109.93;60.03;;;0.20;99.90;;;;;;5004267;28;20444;-85
2022/03/05 04:17:19;;;;;;;108.18;46.83;;;0.20;99.90;;;;;;5003805;28;20191;-85
2022/03/05 04:19:44;;;;;;;105.85;52.85;;;0.20;99.90;;;;;;5004221;28;20166;-85
2022/03/05 04:22:10;;;;;;;121.90;74.37;;;0.20;99.90;;;;;;5004089;28;20198;-85
2022/03/05 04:24:36;;;;;;;111.10;70.10;;;0.20;99.90;;;;;;5003591;28;20507;-85
2022/03/05 04:27:05;;;;;;;111.13;63.77;;;0.20;99.90;;;;;;5003937;28;20417;-85
2022/03/05 04:29:31;;;;;;;118.13;53.83;;;0.20;99.90;;;;;;5003888;28;20174;-85
2022/03/05 04:31:57;;;;;;;106.00;60.65;;;0.30;99.90;;;;;;5004083;28;20180;-85
2022/03/05 04:34:22;;;;;;;112.70;63.30;;;0.20;99.90;;;;;;5003315;28;20186;-85
2022/03/05 04:36:48;;;;;;;112.93;73.00;;;0.20;99.90;;;;;;5003120;28;20186;-85
2022/03/05 04:39:13;;;;;;;116.07;59.03;;;0.30;99.90;;;;;;5002216;28;20174;-85
2022/03/05 04:41:40;;;;;;;106.97;53.40;;;0.20;99.90;;;;;;5001960;28;20221;-85
2022/03/05 04:44:06;;;;;;;119.35;70.00;;;0.20;99.90;;;;;;5004400;28;20169;-85
2022/03/05 04:46:32;;;;;;;105.45;54.42;;;0.30;99.90;;;;;;5003114;28;20593;-86
2022/03/05 04:48:57;;;;;;;113.40;69.13;;;0.20;99.90;;;;;;5002244;28;20170;-86
2022/03/05 04:51:23;;;;;;;110.13;61.77;;;0.20;99.90;;;;;;5003211;28;20181;-85
2022/03/05 04:53:49;;;;;;;115.07;84.77;;;0.20;99.90;;;;;;5001448;28;20421;-86
2022/03/05 04:56:14;;;;;;;108.37;71.47;;;0.20;99.90;;;;;;5003084;28;20194;-86
2022/03/05 04:58:40;;;;;;;109.47;62.67;;;0.20;99.90;;;;;;5002758;28;20182;-85
2022/03/05 05:01:06;;;;;;;106.37;57.67;;;0.20;99.90;;;;;;5003230;28;20202;-85
2022/03/05 05:03:33;;;;;;;116.33;64.90;;;0.20;99.90;;;;;;5002860;28;20170;-85
2022/03/05 05:05:59;;;;;;;115.63;63.75;;;0.10;99.90;;;;;;5002699;28;20205;-86
2022/03/05 05:08:25;;;;;;;110.50;67.97;;;0.20;99.90;;;;;;5002736;28;20159;-85
2022/03/05 05:10:51;;;;;;;113.80;67.27;;;0.10;99.90;;;;;;5002266;28;20542;-86
2022/03/05 05:13:17;;;;;;;119.57;71.70;;;0.10;99.90;;;;;;5000967;28;20414;-86
2022/03/05 05:15:42;;;;;;;106.63;62.28;;;0.10;99.90;;;;;;5000826;28;20244;-85
2022/03/05 05:18:08;;;;;;;112.30;76.77;;;0.10;99.90;;;;;;5001705;28;20250;-86
2022/03/05 05:20:34;;;;;;;106.63;56.20;;;0.10;99.90;;;;;;4996743;28;20166;-85
2022/03/05 05:23:00;;;;;;;112.53;59.47;;;0.10;99.90;;;;;;4999714;28;20393;-85
2022/03/05 05:25:25;;;;;;;114.90;74.40;;;0.10;99.90;;;;;;5001790;28;20182;-86
2022/03/05 05:27:51;;;;;;;104.67;59.93;;;0.00;99.90;;;;;;5000277;28;20169;-86
2022/03/05 05:30:16;;;;;;;105.87;66.00;;;0.10;99.90;;;;;;5002029;28;20171;-85
2022/03/05 05:32:42;;;;;;;120.47;82.93;;;0.10;99.90;;;;;;5002456;28;20176;-86
2022/03/05 05:35:08;;;;;;;107.10;63.63;;;0.10;99.90;;;;;;5000788;28;20194;-85
2022/03/05 05:37:34;;;;;;;119.20;71.70;;;0.10;99.90;;;;;;5001981;28;20186;-86
2022/03/05 05:40:00;;;;;;;107.23;62.50;;;0.10;99.90;;;;;;5001760;28;20402;-85
2022/03/05 05:42:26;;;;;;;123.53;92.03;;;0.10;99.90;;;;;;5001285;28;20457;-85
2022/03/05 05:44:52;;;;;;;114.17;73.47;;;0.10;99.90;;;;;;5000916;28;20167;-86
2022/03/05 05:47:18;;;;;;;117.90;87.63;;;0.20;99.90;;;;;;5000598;28;20422;-85
2022/03/05 05:49:43;;;;;;;111.57;61.77;;;0.20;99.90;;;;;;5000643;28;20992;-85
2022/03/05 05:52:09;;;;;;;122.83;84.40;;;0.10;99.90;;;;;;4999352;28;20181;-85
2022/03/05 05:54:38;;;;;;;110.88;76.07;;;0.20;99.90;;;;;;5000807;28;20175;-86
2022/03/05 05:57:04;;;;;;;117.45;68.90;;;0.30;99.90;;;;;;5000438;28;20581;-86
2022/03/05 05:59:30;;;;;;;128.80;92.77;;;0.30;99.90;;;;;;5000255;28;20243;-85
2022/03/05 06:01:56;;;;;;;113.23;79.40;;;0.20;99.90;;;;;;4998195;28;20209;-85
2022/03/05 06:04:21;;;;;;;112.15;76.20;;;0.20;99.90;;;;;;4998657;28;20170;-86
2022/03/05 06:06:47;;;;;;;108.53;73.40;;;0.20;99.90;;;;;;4998659;28;20193;-86
2022/03/05 06:09:13;;;;;;;132.73;113.40;;;0.20;99.90;;;;;;4999990;28;20158;-85
2022/03/05 06:11:38;;;;;;;106.13;56.87;;;0.20;99.90;;;;;;4998321;28;20275;-86
2022/03/05 06:14:06;;;;;;;107.73;67.33;;;0.20;99.90;;;;;;4998084;28;20178;-86
2022/03/05 06:16:32;;;;;;;108.97;77.35;;;0.30;99.90;;;;;;4998369;28;20186;-86
2022/03/05 06:18:58;;;;;;;110.43;59.03;;;0.20;99.90;;;;;;5000185;28;20170;-86
2022/03/05 06:21:24;;;;;;;122.30;90.30;;;0.20;99.90;;;;;;4999482;28;20241;-86
2022/03/05 06:23:50;;;;;;;117.20;83.28;;;0.20;99.90;;;;;;4998314;28;20253;-85
2022/03/05 06:26:16;;;;;;;125.23;79.87;;;0.10;99.90;;;;;;4998972;28;20218;-86
2022/03/05 06:28:41;;;;;;;122.87;88.93;;;0.20;99.90;;;;;;4999191;28;20406;-86
2022/03/05 06:31:08;;;;;;;104.40;61.47;;;0.20;99.90;;;;;;4998960;28;20181;-86
2022/03/05 06:33:33;;;;;;;103.60;62.60;;;0.20;99.90;;;;;;4999694;28;20490;-86
2022/03/05 06:35:59;;;;;;;118.23;70.27;;;0.20;99.90;;;;;;5000352;28;20202;-85
2022/03/05 06:38:25;;;;;;;124.23;107.07;;;0.30;99.90;;;;;;5001293;28;20166;-86
2022/03/05 06:40:51;;;;;;;103.55;67.43;;;0.20;99.90;;;;;;5000570;28;20221;-85
2022/03/05 06:43:18;;;;;;;111.22;77.88;;;0.20;99.90;;;;;;5001741;28;20219;-85
2022/03/05 06:45:44;;;;;;;107.88;72.18;;;0.30;99.90;;;;;;5077806;23;20189;-86
2022/03/05 06:50:42;;;;;;;110.63;90.05;;;0.40;99.90;;;;;;5009888;28;20621;-86
2022/03/05 06:53:08;;;;;;;165.23;147.03;;;0.30;99.90;;;;;;5011190;28;20254;-86
2022/03/05 06:55:33;;;;;;;113.07;68.93;;;0.30;99.90;;;;;;5010671;28;20163;-85
2022/03/05 06:57:59;;;;;;;103.87;68.70;;;0.30;99.90;;;;;;5011070;28;20619;-86
2022/03/05 07:00:25;;;;;;;122.73;95.33;;;0.40;99.90;;;;;;5011858;28;20167;-85
2022/03/05 07:02:50;;;;;;;112.63;65.87;;;0.40;99.90;;;;;;5013566;28;20155;-86
2022/03/05 07:05:18;;;;;;;127.25;92.40;;;0.40;99.90;;;;;;5010964;28;20210;-84
2022/03/05 07:07:44;;;;;;;126.53;107.97;;;0.50;99.90;;;;;;5011422;28;20159;-86
2022/03/05 07:10:10;;;;;;;119.97;80.38;;;0.50;99.90;;;;;;5011064;28;20402;-86
2022/03/05 07:12:36;;;;;;;106.50;53.95;;;0.50;99.90;;;;;;5011354;28;20253;-86
2022/03/05 07:15:02;;;;;;;114.07;80.63;;;0.50;99.90;;;;;;5011576;28;20236;-85
2022/03/05 07:17:47;;;;;;;113.63;62.13;;;0.50;99.90;;;;;;5011928;28;20214;-86
2022/03/05 07:20:12;;;;;;;113.18;70.68;;;0.60;99.90;;;;;;5011356;28;20157;-86
2022/03/05 07:22:44;;;;;;;110.07;68.63;;;0.60;99.90;;;;;;5012269;28;20194;-86
2022/03/05 07:25:11;;;;;;;103.93;56.65;;;0.70;99.90;;;;;;5011109;28;20217;-86
2022/03/05 07:27:37;;;;;;;106.03;57.08;;;0.70;99.90;;;;;;5011553;28;20178;-86
2022/03/05 07:30:04;;;;;;;113.70;55.30;;;0.80;99.90;;;;;;5011551;28;20641;-86
2022/03/05 07:32:29;;;;;;;138.80;124.00;;;0.80;99.90;;;;;;5011819;28;20174;-86
2022/03/05 07:34:55;;;;;;;119.10;92.53;;;0.90;99.90;;;;;;5010342;28;20175;-86
2022/03/05 07:37:20;;;;;;;112.73;71.23;;;0.90;99.90;;;;;;5009388;28;20257;-86
2022/03/05 07:39:49;;;;;;;114.20;61.53;;;0.90;99.90;;;;;;5010915;28;20173;-86
2022/03/05 07:42:14;;;;;;;120.07;88.75;;;1.00;99.90;;;;;;5010181;28;20190;-86
2022/03/05 07:44:40;;;;;;;110.00;53.67;;;1.00;99.90;;;;;;5009756;28;20189;-86
2022/03/05 07:47:06;;;;;;;114.50;56.10;;;1.00;99.90;;;;;;5014399;28;20186;-86
2022/03/05 07:49:32;;;;;;;104.37;58.63;;;1.10;99.90;;;;;;5014251;28;20181;-86
2022/03/05 07:51:57;;;;;;;111.40;73.77;;;1.20;99.90;;;;;;5012977;28;20441;-86
2022/03/05 07:54:24;;;;;;;102.30;68.77;;;1.20;99.90;;;;;;5005538;28;20170;-84
2022/03/05 07:56:50;;;;;;;106.68;61.15;;;1.20;99.90;;;;;;5001832;28;20666;-85
2022/03/05 07:59:16;;;;;;;113.13;59.30;;;1.30;99.90;;;;;;5003836;28;20230;-85
2022/03/05 08:01:41;;;;;;;113.83;56.33;;;1.40;99.90;;;;;;5002929;28;20190;-85
2022/03/05 08:04:07;;;;;;;130.27;84.17;;;1.40;99.90;;;;;;5003792;28;20155;-85
2022/03/05 08:06:33;;;;;;;117.30;97.23;;;1.50;99.90;;;;;;5003388;28;20651;-86
2022/03/05 08:08:59;;;;;;;110.37;65.80;;;1.50;99.90;;;;;;5000821;28;20704;-86
2022/03/05 08:11:25;;;;;;;109.00;70.75;;;1.50;99.90;;;;;;5001064;28;20167;-86
2022/03/05 08:13:51;;;;;;;109.10;64.75;;;1.60;99.90;;;;;;5002909;28;20534;-86
2022/03/05 08:16:17;;;;;;;140.70;125.93;;;1.60;99.90;;;;;;5002495;28;20289;-86
2022/03/05 08:18:42;;;;;;;117.30;67.47;;;1.60;99.90;;;;;;5003492;28;20434;-86
2022/03/05 08:21:08;;;;;;;117.40;94.00;;;1.70;99.90;;;;;;5001377;28;20191;-86
2022/03/05 08:23:34;;;;;;;159.70;144.00;;;1.80;99.90;;;;;;5003222;28;20162;-86
2022/03/05 08:26:00;;;;;;;112.57;63.83;;;1.80;99.90;;;;;;5003361;28;20445;-86
2022/03/05 08:28:26;;;;;;;130.73;115.90;;;1.80;99.90;;;;;;5001671;28;20198;-86
2022/03/05 08:30:52;;;;;;;105.00;66.63;;;1.90;99.90;;;;;;5001545;28;20171;-86
2022/03/05 08:33:18;;;;;;;119.13;65.03;;;2.00;99.90;;;;;;5001081;28;20409;-86
2022/03/05 08:35:44;;;;;;;112.97;79.70;;;2.10;99.90;;;;;;5002639;28;20429;-86
2022/03/05 08:38:10;;;;;;;177.90;161.48;;;2.10;99.90;;;;;;5002756;28;20504;-86
2022/03/05 08:40:35;;;;;;;138.45;111.35;;;2.20;99.90;;;;;;5002975;28;20202;-86
2022/03/05 08:43:01;;;;;;;106.17;61.80;;;2.10;99.90;;;;;;5002903;28;20167;-86
2022/03/05 08:45:27;;;;;;;120.47;84.03;;;2.10;99.90;;;;;;5002697;28;20159;-86
2022/03/05 08:47:52;;;;;;;107.50;66.10;;;2.20;99.90;;;;;;5003188;28;20163;-86
2022/03/05 08:50:18;;;;;;;114.00;72.43;;;2.30;99.90;;;;;;5003193;28;20178;-86
2022/03/05 08:52:44;;;;;;;109.07;93.43;;;2.30;99.50;;;;;;5002328;28;20647;-86
2022/03/05 08:55:12;;;;;;;178.17;161.37;;;2.40;99.10;;;;;;5001503;28;20194;-86
2022/03/05 08:57:39;;;;;;;111.82;64.63;;;2.50;98.00;;;;;;5001264;28;20191;-86
2022/03/05 09:00:08;;;;;;;109.60;72.00;;;2.50;98.10;;;;;;5001252;28;20166;-86
2022/03/05 09:02:34;;;;;;;117.30;61.10;;;2.60;97.00;;;;;;5002648;28;20194;-86
2022/03/05 09:05:00;;;;;;;105.15;55.85;;;2.60;96.70;;;;;;5002756;28;20276;-86
2022/03/05 09:07:26;;;;;;;119.43;75.90;;;2.70;96.70;;;;;;5002388;28;20183;-86
2022/03/05 09:09:52;;;;;;;106.18;61.78;;;2.80;94.70;;;;;;5002706;28;20500;-86
2022/03/05 09:12:20;;;;;;;99.43;49.83;;;2.90;93.50;;;;;;5001940;28;20225;-86
2022/03/05 09:14:48;;;;;;;101.18;48.25;;;3.00;92.40;;;;;;5000866;28;20228;-86
2022/03/05 09:17:14;;;;;;;107.32;48.55;;;3.00;92.30;;;;;;5001975;28;20654;-86
2022/03/05 09:19:40;;;;;;;114.55;62.05;;;3.00;91.80;;;;;;5002337;28;20178;-86
2022/03/05 09:22:09;;;;;;;101.47;43.70;;;3.10;91.40;;;;;;5003106;28;20197;-86
2022/03/05 09:24:34;;;;;;;102.00;41.30;;;3.20;90.60;;;;;;5001645;28;20169;-86
2022/03/05 09:27:04;;;;;;;104.90;41.00;;;3.30;90.40;;;;;;4998400;28;20187;-86
2022/03/05 09:29:30;;;;;;;101.75;35.15;;;3.40;88.10;;;;;;4997082;28;20194;-85
2022/03/05 09:31:56;;;;;;;92.63;29.00;;;3.50;82.10;;;;;;4998483;28;20174;-86
2022/03/05 09:34:22;;;;;;;97.50;32.87;;;3.50;79.60;;;;;;5002318;28;20412;-86
2022/03/05 09:36:48;;;;;;;93.70;27.83;;;3.60;77.50;;;;;;5000081;28;20218;-86
2022/03/05 09:39:14;;;;;;;90.80;24.07;;;3.70;74.90;;;;;;5000176;28;20824;-84
2022/03/05 09:41:40;;;;;;;99.00;25.33;;;3.70;74.60;;;;;;4999543;28;20221;-84
2022/03/05 09:44:07;;;;;;;94.30;29.70;;;3.90;69.60;;;;;;4998948;28;20171;-88
2022/03/05 09:46:33;;;;;;;99.78;32.97;;;4.10;69.60;;;;;;4999108;28;20429;-87
2022/03/05 09:48:59;;;;;;;93.55;23.15;;;4.30;61.50;;;;;;5004794;28;20186;-87
2022/03/05 09:51:32;;;;;;;97.63;19.85;;;4.40;56.60;;;;;;5004029;28;20182;-87
2022/03/05 09:53:57;;;;;;;84.75;22.52;;;4.50;55.40;;;;;;5002592;28;20175;-87
2022/03/05 09:56:23;;;;;;;91.37;19.37;;;4.60;49.40;;;;;;5005137;28;20182;-86
2022/03/05 09:58:51;;;;;;;90.85;22.48;;;4.70;47.50;;;;;;5003071;28;20800;-86
2022/03/05 10:01:17;;;;;;;92.00;25.35;;;4.70;46.40;;;;;;5001628;28;20190;-86
2022/03/05 10:03:44;;;;;;;97.93;20.85;;;4.90;43.10;;;;;;5004116;28;20174;-86
2022/03/05 10:06:16;;;;;;;87.78;17.60;;;4.90;40.00;;;;;;5003840;28;20249;-86
2022/03/05 10:08:42;;;;;;;93.00;21.63;;;5.00;38.80;;;;;;5005732;28;20190;-86
2022/03/05 10:11:09;;;;;;;97.63;19.52;;;5.10;32.50;;;;;;5005908;28;20261;-86
2022/03/05 10:13:36;;;;;;;93.30;19.95;;;5.30;33.90;;;;;;5006022;28;20228;-86
2022/03/05 10:16:29;;;;;;;91.45;25.70;;;5.50;33.10;;;;;;5006204;28;20186;-86
2022/03/05 10:18:56;;;;;;;94.20;21.10;;;5.50;26.90;;;;;;5004906;28;20150;-86
2022/03/05 10:21:30;;;;;;;85.18;19.13;;;5.70;27.30;;;;;;5004317;28;20258;-87
2022/03/05 10:24:07;;;;;;;91.93;19.58;;;5.90;20.10;;;;;;5003212;28;20198;-86
2022/03/05 10:26:54;;;;;;;89.03;20.45;;;5.90;19.20;;;;;;5003822;28;20185;-86
2022/03/05 10:29:25;;;;;;;86.78;18.02;;;6.00;12.00;;;;;;4997919;28;20159;-86
2022/03/05 10:31:58;;;;;;;82.90;18.50;;;6.00;9.80;;;;;;5003181;28;20170;-86
2022/03/05 10:34:24;;;;;;;90.30;21.50;;;6.10;10.00;;;;;;4999649;28;20186;-86
2022/03/05 10:37:00;;;;;;;84.57;18.60;;;6.20;5.90;;;;;;4999178;28;20201;-86
2022/03/05 10:39:27;;;;;;;88.38;22.17;;;6.30;3.80;;;;;;4998674;28;20162;-86
2022/03/05 10:41:56;;;;;;;82.55;16.58;;;6.50;3.00;;;;;;4999459;28;20182;-86
2022/03/05 10:44:39;;;;;;;84.35;17.83;;;6.60;2.10;;;;;;4998849;28;20182;-86
2022/03/05 10:47:05;;;;;;;90.60;17.85;;;6.80;1.00;;;;;;4998714;28;20201;-86
2022/03/05 10:49:40;;;;;;;84.40;15.57;;;7.00;1.00;;;;;;4998237;28;20190;-86
2022/03/05 10:52:08;;;;;;;86.57;17.02;;;7.00;1.00;;;;;;4999835;28;20166;-86
2022/03/05 10:54:40;;;;;;;81.00;14.15;;;7.00;1.00;;;;;;5003538;28;20651;-86
2022/03/05 10:57:17;;;;;;;82.10;14.20;;;7.00;1.00;;;;;;5003976;28;20194;-86
2022/03/05 10:59:48;;;;;;;84.63;15.38;;;7.10;1.00;;;;;;5005352;28;20205;-86
2022/03/05 11:02:17;;;;;;;84.47;15.73;;;7.10;1.00;;;;;;5004680;28;20206;-86
2022/03/05 11:04:46;;;;;;;87.47;16.83;;;7.40;1.00;;;;;;5003883;28;20266;-86
2022/03/05 11:13:13;;;;;;;83.60;16.33;;;7.80;1.00;;;;;;4235673;26;20207;-86
2022/03/05 11:16:11;;;;;;;82.30;17.17;;;7.60;1.00;;;;;;5010706;28;20205;-85
2022/03/05 11:19:25;;;;;;;85.93;13.50;;;7.70;1.00;;;;;;5034133;28;20196;-86
2022/03/05 11:27:29;;;;;;;;;;;;;;;;;;;;;
2022/03/05 11:30:36;;;;;;;80.03;18.00;;;8.00;1.00;;;;;;4945054;28;20537;-86
2022/03/05 11:33:17;;;;;;;83.88;21.83;;;8.30;1.00;;;;;;4967783;28;20174;-85
2022/03/05 11:57:57;;;;;;;90.93;43.92;;;9.10;1.00;;;;;;1173573;23;20308;-85
2022/03/05 12:01:30;;;;;;;84.95;41.10;;;9.10;1.00;;;;;;4977252;28;20171;-85
2022/03/05 12:04:58;;;;;;;82.93;32.97;;;9.20;1.00;;;;;;4929542;29;20275;-86
2022/03/05 12:08:40;;;;;;;80.20;31.98;;;9.10;1.00;;;;;;4967277;28;20201;-86
2022/03/05 12:12:00;;;;;;;83.93;36.45;;;9.00;1.00;;;;;;4936567;28;20175;-86
2022/03/05 12:23:48;;;;;;;82.38;30.83;;;9.00;1.00;;;;;;4992319;28;20218;-85
2022/03/05 12:26:58;;;;;;;82.63;29.50;;;9.20;1.00;;;;;;4951616;28;20195;-85
2022/03/05 12:30:28;;;;;;;92.03;46.70;;;9.30;1.00;;;;;;4973294;28;20258;-85
2022/03/05 12:33:47;;;;;;;91.72;39.90;;;9.50;1.00;;;;;;4898646;29;20181;-85
2022/03/05 12:47:56;;;;;;;;;;;;;;;;;;;;;
2022/03/05 12:51:44;;;;;;;81.72;28.10;;;10.00;1.00;;;;;;5000449;28;20559;-85
2022/03/05 12:55:10;;;;;;;80.45;21.60;;;10.00;1.00;;;;;;4992794;28;20182;-85
2022/03/05 13:09:00;;;;;;;;;;;;;;;;;;;;;
2022/03/05 13:27:38;;;;;;;72.50;12.13;;;9.70;1.00;;;;;;5024937;23;20217;-85
2022/03/05 13:37:45;;;;;;;;;;;;;;;;;;;;;
2022/03/05 13:51:27;;;;;;;74.18;20.33;;;9.40;1.00;;;;;;4881728;29;20170;-86
2022/03/05 14:27:17;;;;;;;69.07;8.75;;;9.30;1.00;;;;;;4999607;28;20233;-85
2022/03/05 14:33:50;;;;;;;71.20;8.80;;;9.40;1.00;;;;;;4891195;29;20242;-85
2022/03/05 14:37:33;;;;;;;68.05;8.20;;;9.30;1.00;;;;;;4992245;23;20696;-85
2022/03/05 14:45:05;;;;;;;66.68;7.30;;;9.20;1.00;;;;;;4790275;30;20532;-85
2022/03/05 15:05:40;;;;;;;;;;;;;;;;;;;;;
2022/03/05 15:09:24;;;;;;;;;;;;;;;;;;;;;
2022/03/05 16:46:19;;;;;;;69.78;9.15;;;8.60;1.00;;;;;;4992705;28;20210;-85
2022/03/05 17:07:45;;;;;;;69.22;7.32;;;8.10;1.00;;;;;;5078998;23;20297;-86
2022/03/05 17:10:13;;;;;;;69.67;8.00;;;8.00;1.00;;;;;;5027431;28;20171;-86
2022/03/05 17:12:40;;;;;;;73.50;13.18;;;8.00;1.00;;;;;;5010297;28;20404;-86
2022/03/05 17:15:07;;;;;;;73.72;9.95;;;7.90;1.00;;;;;;5009773;28;20213;-86
2022/03/05 17:17:33;;;;;;;78.22;12.27;;;7.90;1.00;;;;;;5009134;28;20190;-86
2022/03/05 17:19:59;;;;;;;73.72;11.68;;;7.80;1.00;;;;;;5011071;28;20177;-86
2022/03/05 17:22:30;;;;;;;72.50;11.97;;;7.60;1.00;;;;;;5010636;28;20217;-86
2022/03/05 17:24:56;;;;;;;70.53;12.65;;;7.50;1.00;;;;;;5010497;28;20170;-86
2022/03/05 17:27:22;;;;;;;73.73;15.67;;;7.50;1.00;;;;;;5010001;28;20183;-87
2022/03/05 17:29:48;;;;;;;72.85;13.70;;;7.50;1.00;;;;;;5009602;28;20175;-86